ETUSIVU ESITTELY HEVOSET KASVATUS

Fifth Proright     VH14-029-0166


   

Fifth Proright, "Rollo"
syntynyt 23.01.2014 Saksassa
12-vuotias, ikääntyy satunnaisesti
saksalainen ratsuponi (50%), ori
tummanpunarautias, 147 cm
estepainotus, re: 110 cm
51 ERJ-sijoitusta
kasv. Fifth Bridge Ponies (Saksa)
om. dumi (VRL-00218)

Luonne

Lorem ipsum dolor sit amet, consectetuer adipiscing elit, sed diam nonummy nibh euismod tincidunt ut laoreet dolore magna aliquam erat volutpat. Ut wisi enim ad minim veniam, quis nostrud exerci tation ullamcorper suscipit lobortis nisl ut aliquip ex ea commodo consequat. Duis autem vel eum iriure dolor in hendrerit in vulputate velit esse molestie consequat, vel illum dolore eu feugiat nulla facilisis at vero eros et accumsan et iusto odio dignissim qui blandit praesent luptatum zzril delenit augue duis dolore te feugait nulla facilisi. Nam liber tempor cum soluta nobis eleifend option congue nihil imperdiet doming.

Sukutaulu

          i.  Fifth Quite a Catch
          DRP 50%, 146 cm, trn
 ii.  Poniniemen Médaille  nf  iii.  Maraca
 ERJ-III, YLA2, NFL-II
 iie.  Kyeheart Wind Waker
 ie.  Tjanina Ring  xx  iei.  Ludwig van Drake xx
 iee.  La Gioconda xx
          e.  Prolady Ring  ERJ-I
          DRP 50%, 148 cm, trt
 ei.  Kaapro of Yeneva  nf
 ERL-II, NFL-II
 eii.  Milfoil Yarrow   ERJ-II, YLA2
 eie.  Wynette Cliona   YLA3
 ee.  Rudelady Ring xx  eei.  Rudebox xx   Class II
 eee.  U Smile xx   Class I

Jälkeläiset

13.07.2014, rp-t. Sahne Sunflower (57.8125%), e. Mulberry Bluebell
31.10.2014, rp-t. Snilli Dewberry (45.703125%), e. Skyfallen Blueberry Breeze

Kilpailut

09.02.2014, ERJ kutsu - 100 cm - 4/30
11.02.2014, ERJ kutsu - 100 cm - 5/30
14.02.2014, ERJ kutsu - 100 cm - 5/30
14.02.2014, ERJ kutsu - 100 cm - 2/30
14.02.2014, ERJ kutsu - 100 cm - 3/30
14.02.2014, ERJ kutsu - 90 cm - 5/30
14.02.2014, ERJ kutsu - 100 cm - 7/50
14.02.2014, ERJ kutsu - 100 cm - 5/30
15.02.2014, ERJ kutsu - 90 cm - 2/30
15.02.2014, ERJ kutsu - 100 cm - 2/30
15.02.2014, ERJ kutsu - 100 cm - 3/50
16.02.2014, ERJ kutsu - 100 cm - 2/50
16.02.2014, ERJ kutsu - 100 cm - 2/30
17.02.2014, ERJ kutsu - 100 cm - 4/30
17.02.2014, ERJ kutsu - 100 cm - 4/30
17.02.2014, ERJ kutsu - 100 cm - 2/30
17.02.2014, ERJ kutsu - 100 cm - 4/50
19.02.2014, ERJ kutsu - 80 cm - 3/30
19.02.2014, ERJ kutsu - 90 cm - 1/40
20.02.2014, ERJ kutsu - 80 cm - 4/40
20.02.2014, ERJ kutsu - 90 cm - 3/40
22.02.2014, ERJ kutsu - 80 cm - 3/40
25.02.2014, ERJ kutsu - 80 cm - 6/40
01.03.2014, ERJ kutsu - 80 cm - 3/30
03.03.2014, ERJ kutsu - 70 cm - 3/30
03.03.2014, ERJ kutsu - 70 cm - 3/30
04.03.2014, ERJ kutsu - 90 cm - 4/30
05.03.2014, ERJ kutsu - 90 cm - 4/30
05.03.2014, ERJ kutsu - 70 cm - 4/30
05.03.2014, ERJ kutsu - 100 cm - 3/100
06.03.2014, ERJ kutsu - 100 cm - 7/100
07.03.2014, ERJ kutsu - 100 cm - 3/40
07.03.2014, ERJ kutsu - 100 cm - 5/100
08.03.2014, ERJ kutsu - 100 cm - 5/40
09.03.2014, ERJ kutsu - 100 cm - 3/40
09.03.2014, ERJ kutsu - 100 cm - 2/40
10.03.2014, ERJ kutsu - 100 cm - 4/100
10.03.2014, ERJ kutsu - 100 cm - 4/100
11.03.2014, ERJ kutsu - 100 cm - 6/100
13.03.2014, ERJ kutsu - 100 cm - 9/100
13.03.2014, ERJ kutsu - 100 cm - 10/100
17.03.2014, ERJ kutsu - 100 cm - 9/100
18.03.2014, ERJ kutsu - 100 cm - 1/50
19.03.2014, ERJ kutsu - 100 cm - 5/30
12.04.2014, ERJ kutsu - 100 cm - 4/30
14.04.2014, ERJ kutsu - 100 cm - 2/30
16.04.2014, ERJ kutsu - 100 cm - 4/30
17.04.2014, ERJ kutsu - 100 cm - 5/30
19.04.2014, ERJ kutsu - 100 cm - 5/30
21.04.2014, ERJ kutsu - 100 cm - 3/30
30.04.2014, ERJ-Cup kutsu - 100 cm - 36/494

Päiväkirja


Valmennukset

00.00.0000, valmennus, valmentaja:

Webdesign © Milja     Kuvien © N.H.     Tekstien © Tallin omaisuutta
VIRTUAALIHEVONEN - A SIM GAME HORSE